Time;durP1;ratioP1;P1;durP2;ratioP2;P2;SDS_P1;SDS_P2;PMS_P1;PMS_P2;Temp;Humidity;BMP_temperature;BMP_pressure;BME280_temperature;BME280_humidity;BME280_pressure;Samples;Min_cycle;Max_cycle;Signal;HPM_P1;HPM_P2
2023/02/01 00:01:55;;;;;;;76.78;9.55;;;7.20;99.90;;;;;;4945520;29;20194;-85
2023/02/01 00:04:21;;;;;;;84.63;10.88;;;7.10;99.90;;;;;;4963068;28;20179;-85
2023/02/01 00:06:47;;;;;;;75.97;10.77;;;7.10;99.90;;;;;;4963520;29;20631;-85
2023/02/01 00:09:13;;;;;;;86.67;12.30;;;7.10;99.90;;;;;;4962973;29;20163;-85
2023/02/01 00:11:38;;;;;;;77.95;11.68;;;7.10;99.90;;;;;;4963216;28;20251;-85
2023/02/01 00:14:04;;;;;;;75.13;11.40;;;7.00;99.90;;;;;;4945487;29;20223;-85
2023/02/01 00:16:31;;;;;;;75.50;10.87;;;6.90;99.90;;;;;;4946002;29;20238;-85
2023/02/01 00:19:10;;;;;;;76.20;10.35;;;6.80;99.90;;;;;;4946254;29;20171;-85
2023/02/01 00:21:36;;;;;;;78.65;11.20;;;6.80;99.90;;;;;;4945698;29;20190;-85
2023/02/01 00:24:03;;;;;;;85.03;12.05;;;6.80;99.90;;;;;;4945457;29;20183;-85
2023/02/01 00:26:37;;;;;;;78.45;10.13;;;6.80;99.90;;;;;;4962520;28;20243;-85
2023/02/01 00:29:13;;;;;;;78.32;10.60;;;6.70;99.90;;;;;;4962109;29;20258;-85
2023/02/01 00:31:38;;;;;;;78.78;9.77;;;6.80;99.90;;;;;;4962428;28;20187;-85
2023/02/01 00:34:05;;;;;;;78.57;12.07;;;6.70;99.90;;;;;;4962556;29;20235;-85
2023/02/01 00:36:31;;;;;;;84.57;10.35;;;6.60;99.90;;;;;;4962368;28;20408;-85
2023/02/01 00:38:56;;;;;;;74.13;11.20;;;6.60;99.90;;;;;;4962150;28;20513;-85
2023/02/01 00:41:22;;;;;;;75.10;10.53;;;6.50;99.90;;;;;;4962222;28;20212;-86
2023/02/01 00:43:50;;;;;;;79.10;10.82;;;6.50;99.90;;;;;;4962218;29;20509;-86
2023/02/01 00:46:18;;;;;;;80.25;10.40;;;6.50;99.90;;;;;;4944853;29;20168;-86
2023/02/01 00:48:44;;;;;;;81.97;10.35;;;6.50;99.90;;;;;;4961990;28;20168;-85
2023/02/01 00:51:15;;;;;;;78.63;10.77;;;6.50;99.90;;;;;;4961666;28;20203;-85
2023/02/01 00:53:40;;;;;;;71.78;9.80;;;6.50;99.90;;;;;;4961897;29;20561;-85
2023/02/01 00:56:07;;;;;;;79.70;10.07;;;6.50;99.90;;;;;;4961384;29;20191;-85
2023/02/01 00:58:33;;;;;;;72.15;7.88;;;6.50;99.90;;;;;;4962665;28;20226;-85
2023/02/01 01:01:07;;;;;;;75.70;8.30;;;6.50;99.90;;;;;;4961485;28;20184;-85
2023/02/01 01:03:36;;;;;;;75.18;9.25;;;6.50;99.90;;;;;;4962111;29;20163;-85
2023/02/01 01:06:08;;;;;;;81.43;8.55;;;6.50;99.90;;;;;;4961927;29;20167;-85
2023/02/01 01:08:34;;;;;;;85.18;9.77;;;6.60;99.90;;;;;;4962397;29;20160;-86
2023/02/01 01:11:15;;;;;;;77.35;9.55;;;6.60;99.90;;;;;;4962066;28;20196;-85
2023/02/01 01:13:41;;;;;;;76.22;7.70;;;6.60;99.90;;;;;;4944177;29;20187;-85
2023/02/01 01:16:09;;;;;;;83.80;9.88;;;6.50;99.90;;;;;;4961556;28;20175;-86
2023/02/01 01:18:36;;;;;;;77.82;8.02;;;6.50;99.90;;;;;;4961713;29;20699;-85
2023/02/01 01:21:08;;;;;;;84.70;10.25;;;6.60;99.90;;;;;;4961154;28;20243;-85
2023/02/01 01:23:34;;;;;;;76.97;7.78;;;6.60;99.90;;;;;;4961257;29;20148;-85
2023/02/01 01:26:00;;;;;;;71.75;8.00;;;6.60;99.90;;;;;;4943547;29;20663;-85
2023/02/01 01:28:26;;;;;;;72.70;6.93;;;6.50;99.90;;;;;;4961259;29;20171;-85
2023/02/01 01:30:52;;;;;;;74.37;7.03;;;6.60;99.90;;;;;;4960758;28;20450;-85
2023/02/01 01:33:17;;;;;;;73.40;6.60;;;6.60;99.90;;;;;;4943530;29;20793;-85
2023/02/01 01:35:43;;;;;;;76.20;6.93;;;6.50;99.90;;;;;;4960461;29;20223;-85
2023/02/01 01:38:11;;;;;;;70.77;5.93;;;6.50;99.90;;;;;;4961039;28;20172;-85
2023/02/01 01:40:39;;;;;;;72.47;6.53;;;6.50;99.90;;;;;;4960928;28;20655;-85
2023/02/01 01:43:16;;;;;;;73.35;6.30;;;6.60;99.90;;;;;;4943621;29;20195;-85
2023/02/01 01:45:43;;;;;;;67.75;5.65;;;6.50;99.90;;;;;;4960781;29;20666;-85
2023/02/01 01:48:38;;;;;;;75.38;5.93;;;6.50;99.90;;;;;;4961099;28;20176;-84
2023/02/01 01:51:09;;;;;;;81.85;7.35;;;6.60;99.90;;;;;;4939520;28;20231;-85
2023/02/01 01:53:55;;;;;;;73.50;7.28;;;6.60;99.90;;;;;;4961203;29;20156;-85
2023/02/01 01:56:22;;;;;;;72.60;6.85;;;6.60;99.90;;;;;;4961254;29;20163;-85
2023/02/01 01:58:47;;;;;;;74.70;6.45;;;6.50;99.90;;;;;;4943147;29;20168;-85
2023/02/01 02:01:13;;;;;;;71.10;7.00;;;6.40;99.90;;;;;;4960456;28;20190;-85
2023/02/01 02:03:42;;;;;;;72.17;6.90;;;6.30;99.90;;;;;;4943409;29;20412;-85
2023/02/01 02:06:29;;;;;;;79.03;7.97;;;6.30;99.90;;;;;;4961548;29;20167;-85
2023/02/01 02:08:55;;;;;;;74.45;6.78;;;6.40;99.90;;;;;;4960679;29;20164;-85
2023/02/01 02:11:20;;;;;;;70.67;7.07;;;6.40;99.90;;;;;;4960629;28;20254;-85
2023/02/01 02:13:52;;;;;;;71.13;6.90;;;6.50;99.90;;;;;;4943789;29;20175;-85
2023/02/01 02:16:52;;;;;;;77.90;8.80;;;6.40;99.90;;;;;;4960529;29;20224;-85
2023/02/01 02:19:45;;;;;;;71.82;7.13;;;6.40;99.90;;;;;;4960611;29;20219;-86
2023/02/01 02:22:41;;;;;;;74.60;7.10;;;6.30;99.90;;;;;;4960777;28;20209;-85
2023/02/01 02:25:15;;;;;;;81.57;8.40;;;6.40;99.90;;;;;;4960476;29;20144;-84
2023/02/01 02:27:59;;;;;;;81.38;9.50;;;6.50;99.90;;;;;;4960608;28;20252;-85
2023/02/01 02:30:56;;;;;;;77.50;8.77;;;6.50;99.90;;;;;;4960339;28;20164;-85
2023/02/01 02:33:51;;;;;;;79.78;8.05;;;6.50;99.90;;;;;;4960639;28;20231;-85
2023/02/01 02:36:55;;;;;;;79.57;8.13;;;6.50;99.90;;;;;;4960156;29;20517;-85
2023/02/01 02:39:49;;;;;;;75.90;7.55;;;6.50;99.90;;;;;;4960666;29;20608;-84
2023/02/01 02:48:45;;;;;;;82.97;8.57;;;6.60;99.90;;;;;;4960242;29;20186;-85
2023/02/01 03:05:52;;;;;;;83.68;8.88;;;6.60;99.90;;;;;;4963435;29;20211;-85
2023/02/01 03:08:29;;;;;;;78.55;8.27;;;6.60;99.90;;;;;;4963837;29;20239;-85
2023/02/01 03:11:11;;;;;;;74.75;7.38;;;6.60;99.90;;;;;;4945366;29;20536;-84
2023/02/01 03:13:45;;;;;;;76.82;8.65;;;6.60;99.90;;;;;;4962561;29;20185;-84
2023/02/01 03:16:46;;;;;;;79.80;7.22;;;6.60;99.90;;;;;;4963084;29;20182;-85
2023/02/01 03:19:21;;;;;;;73.22;7.35;;;6.60;99.90;;;;;;4962511;29;20164;-85
2023/02/01 03:21:58;;;;;;;73.47;6.65;;;6.70;99.90;;;;;;4945760;29;20292;-85
2023/02/01 03:24:32;;;;;;;79.85;7.60;;;6.70;99.90;;;;;;4962640;29;20520;-84
2023/02/01 03:27:06;;;;;;;82.38;8.38;;;6.70;99.90;;;;;;4946287;29;20253;-84
2023/02/01 03:29:45;;;;;;;80.47;8.65;;;6.70;99.90;;;;;;4963138;29;20216;-85
2023/02/01 03:32:11;;;;;;;82.22;8.30;;;6.70;99.90;;;;;;4962446;28;20215;-84
2023/02/01 03:34:37;;;;;;;72.80;8.68;;;6.70;99.90;;;;;;4961969;29;20240;-85
2023/02/01 03:37:10;;;;;;;77.77;8.47;;;6.70;99.90;;;;;;4945851;29;20171;-84
2023/02/01 03:39:38;;;;;;;74.82;8.55;;;6.70;99.90;;;;;;4945227;29;20404;-85
2023/02/01 03:42:26;;;;;;;75.25;8.70;;;6.70;99.90;;;;;;4962378;28;20689;-85
2023/02/01 03:45:03;;;;;;;75.55;8.55;;;6.70;99.90;;;;;;4928533;29;20603;-85
2023/02/01 03:47:34;;;;;;;74.60;10.95;;;6.70;99.90;;;;;;4962762;29;20152;-84
2023/02/01 03:50:07;;;;;;;81.03;8.48;;;6.70;99.90;;;;;;4962386;29;20515;-85
2023/02/01 03:53:03;;;;;;;87.18;11.02;;;6.60;99.90;;;;;;4962795;29;20175;-85
2023/02/01 03:55:30;;;;;;;74.25;9.07;;;6.60;99.90;;;;;;4944117;29;20206;-84
2023/02/01 03:58:07;;;;;;;76.30;10.00;;;6.60;99.90;;;;;;4962870;28;20175;-84
2023/02/01 04:00:33;;;;;;;78.00;8.82;;;6.60;99.90;;;;;;4944941;29;20184;-85
2023/02/01 04:02:59;;;;;;;78.87;9.37;;;6.60;99.90;;;;;;4962219;28;20168;-85
2023/02/01 04:05:25;;;;;;;76.90;9.83;;;6.60;99.90;;;;;;4945966;29;20234;-85
2023/02/01 04:07:50;;;;;;;73.40;8.83;;;6.60;99.90;;;;;;4944901;29;20172;-85
2023/02/01 04:10:16;;;;;;;85.63;11.60;;;6.50;99.90;;;;;;4961938;28;20400;-84
2023/02/01 04:12:42;;;;;;;81.90;11.00;;;6.50;99.90;;;;;;4943723;29;20234;-84
2023/02/01 04:15:08;;;;;;;80.10;8.57;;;6.50;99.90;;;;;;4961813;29;20196;-84
2023/02/01 04:17:34;;;;;;;82.28;17.10;;;6.60;99.90;;;;;;4961707;29;20259;-84
2023/02/01 04:19:59;;;;;;;84.70;8.77;;;6.50;99.90;;;;;;4961625;28;20199;-84
2023/02/01 04:22:25;;;;;;;81.57;9.43;;;6.50;99.90;;;;;;4962485;28;20443;-85
2023/02/01 04:24:51;;;;;;;82.53;9.43;;;6.50;99.90;;;;;;4961952;29;20175;-85
2023/02/01 04:27:17;;;;;;;81.47;9.40;;;6.60;99.90;;;;;;4961699;29;20191;-85
2023/02/01 04:29:42;;;;;;;86.47;9.37;;;6.60;99.90;;;;;;4943828;29;20199;-84
2023/02/01 04:32:08;;;;;;;80.93;11.03;;;6.60;99.90;;;;;;4944656;29;20192;-84
2023/02/01 04:34:36;;;;;;;79.40;8.90;;;6.60;99.90;;;;;;4961596;29;20191;-85
2023/02/01 04:37:02;;;;;;;80.68;8.65;;;6.60;99.90;;;;;;4943903;29;20175;-84
2023/02/01 04:39:28;;;;;;;79.50;7.87;;;6.50;99.90;;;;;;4961319;29;20176;-84
2023/02/01 04:41:53;;;;;;;81.50;7.97;;;6.50;99.90;;;;;;4960939;28;20188;-85
2023/02/01 04:44:19;;;;;;;79.80;10.53;;;6.50;99.90;;;;;;4943314;29;20187;-84
2023/02/01 04:46:46;;;;;;;78.40;9.13;;;6.50;99.90;;;;;;4960987;28;20163;-85
2023/02/01 04:49:13;;;;;;;79.43;8.02;;;6.50;99.90;;;;;;4961128;29;20406;-84
2023/02/01 04:51:39;;;;;;;75.25;8.18;;;6.50;99.90;;;;;;4961491;28;20192;-84
2023/02/01 04:54:06;;;;;;;70.90;7.93;;;6.40;99.90;;;;;;4943983;29;20646;-84
2023/02/01 04:56:31;;;;;;;79.32;8.30;;;6.40;99.90;;;;;;4961036;29;20167;-84
2023/02/01 04:58:58;;;;;;;73.00;7.63;;;6.40;99.90;;;;;;4943941;29;20258;-86
2023/02/01 05:01:24;;;;;;;76.80;7.55;;;6.40;99.90;;;;;;4943703;29;20544;-84
2023/02/01 05:03:50;;;;;;;74.80;9.20;;;6.40;99.90;;;;;;4961312;28;20175;-84
2023/02/01 05:06:16;;;;;;;74.40;7.07;;;6.30;99.90;;;;;;4961280;28;20203;-85
2023/02/01 05:08:42;;;;;;;76.95;7.07;;;6.30;99.90;;;;;;4943636;29;20167;-84
2023/02/01 05:13:47;;;;;;;70.13;7.17;;;6.20;99.90;;;;;;4960678;28;20656;-85
2023/02/01 05:13:53;;;;;;;73.53;8.35;;;6.20;99.90;;;;;;4959865;28;20168;-84
2023/02/01 05:16:19;;;;;;;73.87;8.73;;;6.20;99.90;;;;;;4960701;29;20156;-86
2023/02/01 05:18:45;;;;;;;76.10;7.70;;;6.20;99.90;;;;;;4960464;29;20219;-85
2023/02/01 05:21:10;;;;;;;75.50;7.00;;;6.20;99.90;;;;;;4960160;28;20195;-84
2023/02/01 05:24:09;;;;;;;79.30;7.57;;;6.20;99.90;;;;;;4960675;28;20528;-84
2023/02/01 05:26:21;;;;;;;72.53;6.50;;;6.20;99.90;;;;;;4959838;29;20195;-84
2023/02/01 05:28:47;;;;;;;80.83;10.23;;;6.10;99.90;;;;;;4942954;29;20218;-84
2023/02/01 05:31:13;;;;;;;72.63;7.87;;;6.10;99.90;;;;;;4960973;28;20184;-84
2023/02/01 05:33:38;;;;;;;73.77;7.50;;;6.10;99.90;;;;;;4960042;29;20175;-85
2023/02/01 05:36:04;;;;;;;79.20;7.77;;;6.20;99.90;;;;;;4960384;29;20195;-85
2023/02/01 05:38:30;;;;;;;74.20;7.70;;;6.10;99.90;;;;;;4942632;29;20171;-84
2023/02/01 05:40:56;;;;;;;72.07;5.53;;;6.10;99.90;;;;;;4959866;28;20184;-84
2023/02/01 05:43:22;;;;;;;76.82;7.20;;;6.10;99.90;;;;;;4960392;28;20172;-85
2023/02/01 05:45:48;;;;;;;73.60;6.80;;;6.10;99.90;;;;;;4960893;29;20178;-84
2023/02/01 05:48:14;;;;;;;85.07;7.03;;;6.10;99.90;;;;;;4961587;28;20168;-84
2023/02/01 05:50:39;;;;;;;75.53;7.20;;;6.00;99.90;;;;;;4942269;29;20270;-84
2023/02/01 05:53:05;;;;;;;75.60;7.63;;;6.00;99.90;;;;;;4960317;28;20168;-85
2023/02/01 05:55:31;;;;;;;73.47;5.80;;;6.00;99.90;;;;;;4959857;29;20523;-84
2023/02/01 05:57:57;;;;;;;75.85;6.68;;;6.00;99.90;;;;;;4959649;28;20486;-85
2023/02/01 06:00:23;;;;;;;72.47;7.30;;;6.00;99.90;;;;;;4959034;28;20156;-85
2023/02/01 06:02:49;;;;;;;72.53;6.00;;;6.00;99.90;;;;;;4942725;29;20669;-84
2023/02/01 06:05:15;;;;;;;78.20;5.83;;;5.90;99.90;;;;;;4960110;29;20180;-84
2023/02/01 06:07:43;;;;;;;75.23;6.47;;;6.00;99.90;;;;;;4959987;29;20602;-84
2023/02/01 06:10:10;;;;;;;75.45;6.90;;;5.90;99.90;;;;;;4942945;28;20227;-84
2023/02/01 06:12:35;;;;;;;71.50;6.07;;;6.00;99.90;;;;;;4959854;28;20175;-85
2023/02/01 06:15:04;;;;;;;73.17;6.20;;;5.90;99.90;;;;;;4959628;28;20199;-84
2023/02/01 06:17:32;;;;;;;81.05;8.90;;;5.90;99.90;;;;;;4959503;29;20184;-84
2023/02/01 06:19:58;;;;;;;72.88;6.45;;;5.90;99.90;;;;;;4959969;28;20175;-84
2023/02/01 06:22:24;;;;;;;76.40;7.40;;;5.90;99.90;;;;;;4958955;28;20660;-84
2023/02/01 06:24:49;;;;;;;81.13;7.13;;;5.90;99.90;;;;;;4942211;29;20647;-84
2023/02/01 06:27:15;;;;;;;81.43;7.27;;;5.90;99.90;;;;;;4959724;29;20183;-83
2023/02/01 06:29:41;;;;;;;71.80;5.87;;;5.90;99.90;;;;;;4941860;29;20184;-83
2023/02/01 06:32:10;;;;;;;70.63;6.80;;;5.90;99.90;;;;;;4942374;29;20219;-84
2023/02/01 06:34:37;;;;;;;74.20;6.45;;;5.90;99.90;;;;;;4959294;29;20691;-84
2023/02/01 06:37:02;;;;;;;73.75;7.05;;;5.90;99.90;;;;;;4962049;29;20192;-84
2023/02/01 06:39:28;;;;;;;75.87;6.80;;;5.80;99.90;;;;;;4962597;29;20167;-84
2023/02/01 06:41:54;;;;;;;88.77;6.33;;;5.90;99.90;;;;;;4963333;28;20184;-84
2023/02/01 06:44:20;;;;;;;75.67;6.70;;;5.90;99.90;;;;;;4963392;28;20168;-84
2023/02/01 06:46:46;;;;;;;73.38;6.80;;;5.90;99.90;;;;;;4945482;29;20172;-84
2023/02/01 06:49:15;;;;;;;78.23;7.63;;;5.90;99.90;;;;;;4963137;29;20203;-84
2023/02/01 06:51:40;;;;;;;73.30;6.85;;;5.90;99.90;;;;;;4962842;28;20195;-84
2023/02/01 06:54:06;;;;;;;80.57;7.07;;;5.90;99.90;;;;;;4945474;29;20168;-84
2023/02/01 06:56:32;;;;;;;72.73;6.77;;;5.90;99.90;;;;;;4945766;29;20203;-84
2023/02/01 06:58:58;;;;;;;74.77;6.53;;;6.00;99.90;;;;;;4945477;29;20168;-84
2023/02/01 07:01:23;;;;;;;72.80;7.00;;;6.00;99.90;;;;;;4945545;29;20279;-84
2023/02/01 07:03:53;;;;;;;79.47;7.40;;;6.00;99.90;;;;;;4962935;28;20412;-84
2023/02/01 07:06:19;;;;;;;76.82;7.13;;;6.00;99.90;;;;;;4961977;29;20160;-83
2023/02/01 07:08:45;;;;;;;76.53;7.18;;;6.00;99.90;;;;;;4962477;29;20167;-84
2023/02/01 07:11:13;;;;;;;80.77;7.97;;;6.00;99.90;;;;;;4962493;28;20184;-84
2023/02/01 07:13:39;;;;;;;71.95;6.95;;;6.00;99.90;;;;;;4963169;28;20528;-84
2023/02/01 07:16:09;;;;;;;78.32;6.63;;;6.00;99.90;;;;;;4962219;28;20184;-83
2023/02/01 07:18:34;;;;;;;73.82;7.18;;;6.00;99.90;;;;;;4962066;29;20703;-83
2023/02/01 07:21:00;;;;;;;76.23;6.43;;;6.00;99.90;;;;;;4962279;28;20188;-83
2023/02/01 07:23:27;;;;;;;75.90;7.60;;;6.10;99.90;;;;;;4944524;29;20227;-83
2023/02/01 07:25:58;;;;;;;73.43;6.60;;;6.10;99.90;;;;;;4944441;29;20207;-83
2023/02/01 07:28:24;;;;;;;79.45;5.95;;;6.10;99.90;;;;;;4962783;29;20164;-83
2023/02/01 07:30:50;;;;;;;79.03;7.05;;;6.10;99.90;;;;;;4944247;29;20195;-83
2023/02/01 07:33:26;;;;;;;79.70;7.35;;;6.10;99.90;;;;;;4962048;29;20247;-83
2023/02/01 07:35:52;;;;;;;86.32;8.10;;;6.10;99.90;;;;;;4961654;29;20662;-83
2023/02/01 07:38:17;;;;;;;84.50;7.27;;;6.10;99.90;;;;;;4944003;29;20168;-83
2023/02/01 07:40:44;;;;;;;80.20;6.87;;;6.10;99.90;;;;;;4960933;28;20203;-83
2023/02/01 07:43:09;;;;;;;71.07;6.35;;;6.20;99.90;;;;;;4961113;28;20247;-83
2023/02/01 07:45:36;;;;;;;76.73;6.27;;;6.20;99.90;;;;;;4961533;29;20756;-83
2023/02/01 07:48:03;;;;;;;92.75;8.10;;;6.10;99.90;;;;;;4959906;28;20247;-83
2023/02/01 07:50:29;;;;;;;72.72;6.18;;;6.20;99.90;;;;;;4961203;28;20191;-83
2023/02/01 07:52:55;;;;;;;79.78;6.72;;;6.20;99.90;;;;;;4961358;29;20199;-82
2023/02/01 07:55:23;;;;;;;75.00;6.07;;;6.20;99.90;;;;;;4943803;29;20239;-83
2023/02/01 07:57:49;;;;;;;69.68;7.45;;;6.20;99.90;;;;;;4961797;28;20186;-83
2023/02/01 08:03:00;;;;;;;76.70;7.50;;;6.10;99.90;;;;;;4961957;29;20244;-83
2023/02/01 08:05:26;;;;;;;88.32;15.70;;;6.20;99.90;;;;;;4943879;29;20183;-83
2023/02/01 08:07:52;;;;;;;78.28;7.30;;;6.20;99.90;;;;;;4962931;29;20180;-83
2023/02/01 08:10:19;;;;;;;77.93;7.00;;;6.20;99.90;;;;;;4945659;28;20160;-83
2023/02/01 08:12:48;;;;;;;80.70;10.50;;;6.20;99.90;;;;;;4961235;28;20210;-84
2023/02/01 08:15:18;;;;;;;78.47;6.95;;;6.20;99.90;;;;;;4943368;29;20338;-84
2023/02/01 08:17:50;;;;;;;84.45;11.55;;;6.20;99.90;;;;;;4944081;29;20633;-84
2023/02/01 08:20:17;;;;;;;77.55;6.53;;;6.20;99.90;;;;;;4943754;28;20167;-83
2023/02/01 08:22:43;;;;;;;74.03;7.47;;;6.30;99.90;;;;;;4961740;29;20172;-83
2023/02/01 08:25:09;;;;;;;79.45;7.65;;;6.30;99.90;;;;;;4960727;29;20532;-83
2023/02/01 08:27:35;;;;;;;73.93;6.43;;;6.30;99.90;;;;;;4943862;29;20198;-84
2023/02/01 08:30:00;;;;;;;78.10;7.40;;;6.30;99.90;;;;;;4943847;29;20424;-83
2023/02/01 08:32:27;;;;;;;77.40;7.30;;;6.30;99.90;;;;;;4960922;28;20423;-83
2023/02/01 08:34:53;;;;;;;79.07;6.70;;;6.30;99.90;;;;;;4943667;29;20200;-83
2023/02/01 08:37:19;;;;;;;84.30;7.57;;;6.30;99.90;;;;;;4960898;28;20235;-83
2023/02/01 08:39:44;;;;;;;84.03;6.70;;;6.40;99.90;;;;;;4943266;29;20655;-83
2023/02/01 08:44:56;;;;;;;76.30;6.25;;;6.40;99.90;;;;;;4961380;29;20178;-83
2023/02/01 08:47:23;;;;;;;75.70;7.47;;;6.40;99.90;;;;;;4944622;29;20172;-84
2023/02/01 08:49:53;;;;;;;84.95;8.07;;;6.40;99.90;;;;;;4960541;28;20176;-84
2023/02/01 08:52:18;;;;;;;79.25;7.55;;;6.50;99.90;;;;;;4944026;29;20223;-84
2023/02/01 08:54:44;;;;;;;78.90;6.93;;;6.50;99.90;;;;;;4960921;29;20199;-83
2023/02/01 08:57:10;;;;;;;84.97;8.60;;;6.60;99.90;;;;;;4960620;29;20164;-83
2023/02/01 08:59:35;;;;;;;76.30;6.13;;;6.60;99.90;;;;;;4959938;28;20167;-83
2023/02/01 09:02:01;;;;;;;74.60;7.70;;;6.70;99.90;;;;;;4943067;29;20191;-84
2023/02/01 09:04:27;;;;;;;78.60;6.90;;;6.70;99.90;;;;;;4943286;29;20658;-83
2023/02/01 09:06:55;;;;;;;80.33;6.93;;;6.80;99.90;;;;;;4961041;28;20199;-83
2023/02/01 09:09:24;;;;;;;74.82;6.28;;;6.80;99.90;;;;;;4960231;29;20250;-83
2023/02/01 09:11:52;;;;;;;75.65;6.57;;;6.90;99.90;;;;;;4943121;29;20195;-82
2023/02/01 09:14:18;;;;;;;77.07;7.75;;;6.90;99.90;;;;;;4959427;29;20220;-83
2023/02/01 09:16:44;;;;;;;75.70;7.67;;;6.90;99.90;;;;;;4943040;29;20172;-84
2023/02/01 09:19:10;;;;;;;74.77;6.93;;;7.00;99.90;;;;;;4943854;29;20188;-84
2023/02/01 09:21:36;;;;;;;74.60;5.57;;;7.10;99.90;;;;;;4942670;29;20427;-83
2023/02/01 09:24:05;;;;;;;86.13;16.33;;;7.10;99.90;;;;;;4943573;29;20171;-85
2023/02/01 09:26:42;;;;;;;69.15;6.22;;;7.10;99.90;;;;;;5036576;23;20226;-83
2023/02/01 09:29:11;;;;;;;77.53;6.10;;;7.10;99.90;;;;;;4981474;28;20162;-84
2023/02/01 09:31:46;;;;;;;79.53;6.00;;;7.10;99.90;;;;;;4982618;28;20297;-83
2023/02/01 09:34:12;;;;;;;75.20;5.80;;;7.10;99.90;;;;;;4981354;28;20231;-83
2023/02/01 09:36:37;;;;;;;75.10;6.67;;;7.00;99.90;;;;;;4981934;28;20174;-83
2023/02/01 09:39:04;;;;;;;77.27;6.37;;;7.10;99.90;;;;;;4999130;28;20213;-84
2023/02/01 09:41:55;;;;;;;72.10;5.95;;;7.10;99.90;;;;;;4999200;28;20666;-84
2023/02/01 09:44:28;;;;;;;77.75;5.45;;;7.10;99.90;;;;;;4981079;28;20274;-83
2023/02/01 09:46:59;;;;;;;73.03;5.68;;;7.20;99.90;;;;;;4981286;28;20189;-84
2023/02/01 09:49:31;;;;;;;91.50;6.75;;;7.30;99.90;;;;;;4999615;28;20182;-83
2023/02/01 09:52:01;;;;;;;75.22;6.95;;;7.30;99.90;;;;;;4999345;28;20189;-84
2023/02/01 09:54:36;;;;;;;69.53;9.75;;;7.40;99.90;;;;;;4982246;28;20198;-85
2023/02/01 09:57:16;;;;;;;83.00;6.57;;;7.40;99.90;;;;;;4999664;28;20147;-83
2023/02/01 09:59:46;;;;;;;73.65;6.72;;;7.40;99.90;;;;;;4999499;28;20155;-84
2023/02/01 10:02:18;;;;;;;89.13;10.07;;;7.40;99.90;;;;;;4999207;28;20194;-83
2023/02/01 10:04:46;;;;;;;83.40;7.10;;;7.40;99.90;;;;;;4999079;28;20154;-84
2023/02/01 10:07:33;;;;;;;73.88;7.22;;;7.40;99.90;;;;;;4997623;28;20170;-82
2023/02/01 10:10:09;;;;;;;74.35;7.60;;;7.30;99.90;;;;;;4981804;28;20190;-85
2023/02/01 10:12:46;;;;;;;83.38;6.18;;;7.30;99.90;;;;;;5003226;28;20151;-84
2023/02/01 10:15:38;;;;;;;75.97;6.55;;;7.40;99.90;;;;;;4985188;28;20182;-83
2023/02/01 10:18:10;;;;;;;77.88;6.30;;;7.30;99.90;;;;;;4985665;28;20205;-85
2023/02/01 10:20:44;;;;;;;76.13;5.97;;;7.40;99.90;;;;;;4985830;28;20558;-84
2023/02/01 10:23:53;;;;;;;79.15;7.45;;;7.40;99.90;;;;;;4985874;28;20161;-85
2023/02/01 10:26:23;;;;;;;81.47;7.35;;;7.50;99.90;;;;;;5002255;28;20213;-84
2023/02/01 10:28:58;;;;;;;74.85;5.80;;;7.60;99.90;;;;;;5003209;28;20173;-85
2023/02/01 10:31:35;;;;;;;75.00;6.13;;;7.60;99.90;;;;;;5003016;28;20221;-86
2023/02/01 10:34:17;;;;;;;72.70;5.95;;;7.80;99.90;;;;;;4986289;28;20162;-84
2023/02/01 10:37:07;;;;;;;73.00;5.25;;;7.80;99.90;;;;;;5003193;28;20162;-84
2023/02/01 10:39:33;;;;;;;74.97;5.75;;;7.80;99.90;;;;;;5002019;28;20163;-83
2023/02/01 10:41:59;;;;;;;72.32;5.70;;;7.90;99.90;;;;;;4985709;28;20201;-84
2023/02/01 10:44:30;;;;;;;76.83;5.70;;;7.90;99.90;;;;;;4985307;28;20155;-84
2023/02/01 10:46:55;;;;;;;69.80;5.75;;;8.00;99.90;;;;;;4984829;28;20167;-84
2023/02/01 10:49:33;;;;;;;71.47;7.10;;;8.10;99.90;;;;;;4986011;28;20178;-84
2023/02/01 10:52:21;;;;;;;73.88;7.00;;;8.10;99.90;;;;;;4984517;28;20512;-83
2023/02/01 10:54:46;;;;;;;73.88;5.50;;;8.20;99.90;;;;;;5002951;28;20534;-83
2023/02/01 10:57:29;;;;;;;77.33;5.70;;;8.30;99.90;;;;;;5002121;28;20166;-84
2023/02/01 10:59:55;;;;;;;76.45;6.90;;;8.30;99.90;;;;;;5002555;28;20633;-84
2023/02/01 11:02:27;;;;;;;73.43;6.10;;;8.40;99.90;;;;;;5001913;28;20214;-84
2023/02/01 11:05:11;;;;;;;82.35;6.75;;;8.50;99.00;;;;;;4984790;28;20800;-84
2023/02/01 11:07:39;;;;;;;71.82;5.43;;;8.50;80.80;;;;;;5001952;28;20201;-83
2023/02/01 11:10:06;;;;;;;85.35;6.47;;;8.60;64.20;;;;;;4984856;28;20174;-85
2023/02/01 11:12:34;;;;;;;81.75;7.13;;;8.70;47.30;;;;;;4984899;28;20170;-83
2023/02/01 11:15:21;;;;;;;78.25;7.72;;;8.70;42.10;;;;;;5001707;28;20549;-84
2023/02/01 11:17:51;;;;;;;78.78;8.00;;;8.60;44.80;;;;;;5001659;28;20162;-84
2023/02/01 11:20:26;;;;;;;72.80;5.60;;;8.60;43.70;;;;;;4984062;28;20173;-84
2023/02/01 11:22:56;;;;;;;74.40;5.70;;;8.60;43.90;;;;;;5001199;28;20162;-84
2023/02/01 11:25:23;;;;;;;74.72;7.10;;;8.60;42.70;;;;;;4983523;28;20562;-84
2023/02/01 11:27:50;;;;;;;73.95;5.75;;;8.60;43.50;;;;;;5000737;28;20180;-83
2023/02/01 11:30:34;;;;;;;75.72;8.60;;;8.60;46.70;;;;;;4983062;28;20202;-84
2023/02/01 11:33:03;;;;;;;77.15;7.05;;;8.70;47.10;;;;;;5001690;28;20166;-85
2023/02/01 11:35:29;;;;;;;67.22;4.90;;;8.70;36.60;;;;;;4984255;28;20195;-84
2023/02/01 11:37:59;;;;;;;73.45;5.85;;;8.60;36.40;;;;;;5001668;28;20213;-83
2023/02/01 11:40:35;;;;;;;74.35;5.85;;;8.70;38.90;;;;;;4984153;28;20193;-84
2023/02/01 11:43:13;;;;;;;74.78;5.25;;;8.70;37.10;;;;;;4983145;28;20313;-84
2023/02/01 11:45:39;;;;;;;73.90;5.70;;;8.70;34.10;;;;;;5000900;28;20622;-84
2023/02/01 11:48:10;;;;;;;72.57;6.10;;;8.70;40.30;;;;;;4983861;28;20170;-83
2023/02/01 11:50:43;;;;;;;77.80;6.97;;;8.70;42.90;;;;;;4982704;28;20425;-85
2023/02/01 11:53:23;;;;;;;72.25;6.13;;;8.70;40.00;;;;;;4984162;28;20218;-84
2023/02/01 11:56:00;;;;;;;77.10;5.90;;;8.70;43.50;;;;;;5000983;28;20189;-84
2023/02/01 11:58:38;;;;;;;71.00;6.40;;;8.70;44.50;;;;;;4984000;28;20154;-84
2023/02/01 12:01:13;;;;;;;74.35;6.95;;;8.60;33.30;;;;;;4984606;28;20186;-83
2023/02/01 12:04:00;;;;;;;88.30;6.60;;;8.60;33.10;;;;;;4983998;28;20588;-85
2023/02/01 12:06:54;;;;;;;71.57;6.13;;;8.50;36.00;;;;;;4983379;28;20215;-85
2023/02/01 12:09:33;;;;;;;75.70;5.63;;;8.40;36.30;;;;;;4983393;28;20166;-85
2023/02/01 12:12:08;;;;;;;80.22;6.90;;;8.40;41.80;;;;;;4983358;28;20186;-84
2023/02/01 12:14:42;;;;;;;87.25;6.30;;;8.50;39.90;;;;;;5000645;28;20616;-85
2023/02/01 12:17:36;;;;;;;69.82;4.70;;;8.50;43.90;;;;;;5000500;28;20155;-85
2023/02/01 12:20:12;;;;;;;70.82;5.50;;;8.50;41.70;;;;;;4983441;28;20155;-85
2023/02/01 12:23:02;;;;;;;77.95;6.13;;;8.50;43.60;;;;;;5002574;28;20166;-86
2023/02/01 12:25:59;;;;;;;77.93;5.60;;;8.50;37.90;;;;;;4984313;28;20186;-84
2023/02/01 12:28:55;;;;;;;77.20;6.25;;;8.40;34.90;;;;;;4984173;28;20182;-85
2023/02/01 12:31:43;;;;;;;79.50;7.20;;;8.40;34.50;;;;;;5000206;28;20261;-85
2023/02/01 12:34:47;;;;;;;78.07;5.47;;;8.40;35.10;;;;;;5000143;28;20162;-84
2023/02/01 12:37:23;;;;;;;79.88;5.35;;;8.40;42.00;;;;;;4935354;28;20178;-86
2023/02/01 12:40:17;;;;;;;74.10;4.90;;;8.50;41.90;;;;;;4981784;28;20170;-85
2023/02/01 12:43:08;;;;;;;83.85;5.97;;;8.50;41.20;;;;;;4983049;28;20649;-86
2023/02/01 12:45:43;;;;;;;74.97;5.47;;;8.50;37.90;;;;;;4983332;28;20166;-85
2023/02/01 12:48:23;;;;;;;74.15;6.47;;;8.60;33.90;;;;;;5000475;28;20154;-85
2023/02/01 12:51:13;;;;;;;73.18;5.03;;;8.70;29.00;;;;;;4999600;28;20190;-84
2023/02/01 12:54:20;;;;;;;75.72;5.00;;;8.70;33.40;;;;;;4999377;28;20170;-85
2023/02/01 12:57:02;;;;;;;76.30;5.75;;;8.70;27.90;;;;;;4988923;28;20190;-86
2023/02/01 12:59:31;;;;;;;74.22;5.95;;;8.70;29.00;;;;;;4981862;28;20537;-85
2023/02/01 13:02:01;;;;;;;68.72;5.13;;;8.60;32.80;;;;;;4999008;28;20187;-84
2023/02/01 13:04:42;;;;;;;77.85;6.05;;;8.50;37.00;;;;;;5002774;28;20166;-86
2023/02/01 13:07:14;;;;;;;72.18;5.43;;;8.40;38.90;;;;;;4983494;28;20222;-86
2023/02/01 13:09:53;;;;;;;73.00;7.55;;;8.30;38.00;;;;;;4981760;28;20166;-85
2023/02/01 13:12:36;;;;;;;80.00;4.97;;;8.30;43.70;;;;;;4982042;28;20190;-85
2023/02/01 13:15:16;;;;;;;75.72;5.35;;;8.30;43.90;;;;;;4981783;28;20557;-85
2023/02/01 13:17:45;;;;;;;72.95;5.15;;;8.20;46.50;;;;;;4981298;28;20185;-84
2023/02/01 13:20:41;;;;;;;68.50;5.18;;;8.20;49.20;;;;;;4999243;28;20166;-85
2023/02/01 13:23:33;;;;;;;78.55;4.38;;;8.20;51.20;;;;;;4982100;28;20209;-85
2023/02/01 13:25:59;;;;;;;70.22;5.32;;;8.20;51.90;;;;;;4981658;28;20190;-85
2023/02/01 13:28:29;;;;;;;70.77;5.33;;;8.10;52.20;;;;;;4999284;28;20165;-86
2023/02/01 13:31:31;;;;;;;69.78;5.45;;;8.10;55.40;;;;;;4981791;28;20484;-84
2023/02/01 13:34:29;;;;;;;79.85;6.07;;;8.10;58.60;;;;;;4981812;28;20169;-84
2023/02/01 13:37:32;;;;;;;67.07;4.25;;;8.10;76.50;;;;;;4959064;28;20182;-83